sensor_id;sensor_type;location;lat;lon;timestamp;pressure;altitude;pressure_sealevel;temperature;humidity
6132;BME280;3097;42.692;23.278;2023-01-31T00:01:10;94546.06;;;1.59;76.05
6132;BME280;3097;42.692;23.278;2023-01-31T00:03:37;94554.75;;;1.50;75.98
6132;BME280;3097;42.692;23.278;2023-01-31T00:06:13;94557.78;;;1.45;75.53
6132;BME280;3097;42.692;23.278;2023-01-31T00:08:40;94554.19;;;1.40;75.74
6132;BME280;3097;42.692;23.278;2023-01-31T00:11:05;94556.03;;;1.46;75.50
6132;BME280;3097;42.692;23.278;2023-01-31T00:13:31;94550.97;;;1.46;75.83
6132;BME280;3097;42.692;23.278;2023-01-31T00:15:57;94557.88;;;1.52;75.68
6132;BME280;3097;42.692;23.278;2023-01-31T00:18:23;94550.88;;;1.54;75.86
6132;BME280;3097;42.692;23.278;2023-01-31T00:20:51;94559.22;;;1.63;75.44
6132;BME280;3097;42.692;23.278;2023-01-31T00:23:16;94557.81;;;1.60;75.26
6132;BME280;3097;42.692;23.278;2023-01-31T00:25:42;94545.56;;;1.64;75.17
6132;BME280;3097;42.692;23.278;2023-01-31T00:28:07;94539.31;;;1.51;75.10
6132;BME280;3097;42.692;23.278;2023-01-31T00:30:33;94533.66;;;1.49;75.22
6132;BME280;3097;42.692;23.278;2023-01-31T00:32:59;94556.44;;;1.58;75.29
6132;BME280;3097;42.692;23.278;2023-01-31T00:35:24;94545.56;;;1.49;75.74
6132;BME280;3097;42.692;23.278;2023-01-31T00:37:50;94548.97;;;1.56;75.70
6132;BME280;3097;42.692;23.278;2023-01-31T00:40:16;94544.94;;;1.62;75.94
6132;BME280;3097;42.692;23.278;2023-01-31T00:42:41;94556.94;;;1.68;75.84
6132;BME280;3097;42.692;23.278;2023-01-31T00:45:08;94560.28;;;1.68;75.90
6132;BME280;3097;42.692;23.278;2023-01-31T00:47:34;94526.44;;;1.53;75.91
6132;BME280;3097;42.692;23.278;2023-01-31T00:49:59;94549.31;;;1.68;75.83
6132;BME280;3097;42.692;23.278;2023-01-31T00:52:25;94544.16;;;1.61;75.85
6132;BME280;3097;42.692;23.278;2023-01-31T00:54:50;94546.88;;;1.74;75.66
6132;BME280;3097;42.692;23.278;2023-01-31T00:57:15;94533.66;;;1.64;75.72
6132;BME280;3097;42.692;23.278;2023-01-31T00:59:41;94534.94;;;1.75;75.36
6132;BME280;3097;42.692;23.278;2023-01-31T01:02:06;94545.13;;;1.75;75.73
6132;BME280;3097;42.692;23.278;2023-01-31T01:04:33;94561.50;;;1.72;76.57
6132;BME280;3097;42.692;23.278;2023-01-31T01:06:58;94555.66;;;1.72;76.22
6132;BME280;3097;42.692;23.278;2023-01-31T01:09:24;94529.94;;;1.52;76.51
6132;BME280;3097;42.692;23.278;2023-01-31T01:11:49;94559.66;;;1.66;76.74
6132;BME280;3097;42.692;23.278;2023-01-31T01:14:15;94567.34;;;1.58;76.84
6132;BME280;3097;42.692;23.278;2023-01-31T01:16:42;94559.66;;;1.66;77.19
6132;BME280;3097;42.692;23.278;2023-01-31T01:19:16;94561.94;;;1.61;77.57
6132;BME280;3097;42.692;23.278;2023-01-31T01:21:43;94539.16;;;1.53;77.49
6132;BME280;3097;42.692;23.278;2023-01-31T01:24:17;94534.31;;;1.58;77.01
6132;BME280;3097;42.692;23.278;2023-01-31T01:26:42;94515.41;;;1.46;76.91
6132;BME280;3097;42.692;23.278;2023-01-31T01:29:09;94532.25;;;1.62;77.46
6132;BME280;3097;42.692;23.278;2023-01-31T01:31:37;94539.31;;;1.66;76.55
6132;BME280;3097;42.692;23.278;2023-01-31T01:34:14;94547.75;;;1.81;76.37
6132;BME280;3097;42.692;23.278;2023-01-31T01:36:42;94533.19;;;1.75;76.14
6132;BME280;3097;42.692;23.278;2023-01-31T01:39:10;94548.38;;;1.83;76.46
6132;BME280;3097;42.692;23.278;2023-01-31T01:41:37;94551.53;;;1.85;76.39
6132;BME280;3097;42.692;23.278;2023-01-31T01:47:41;94550.19;;;1.89;74.32
6132;BME280;3097;42.692;23.278;2023-01-31T01:52:50;94557.47;;;1.92;70.36
6132;BME280;3097;42.692;23.278;2023-01-31T01:55:21;94555.03;;;1.99;69.82
6132;BME280;3097;42.692;23.278;2023-01-31T01:57:51;94550.09;;;1.98;68.71
6132;BME280;3097;42.692;23.278;2023-01-31T02:00:22;94557.13;;;2.10;68.91
6132;BME280;3097;42.692;23.278;2023-01-31T02:02:50;94548.09;;;2.08;69.15
6132;BME280;3097;42.692;23.278;2023-01-31T02:05:21;94562.28;;;2.17;69.31
6132;BME280;3097;42.692;23.278;2023-01-31T02:07:48;94552.72;;;2.19;68.79
6132;BME280;3097;42.692;23.278;2023-01-31T02:10:39;94568.94;;;2.32;67.80
6132;BME280;3097;42.692;23.278;2023-01-31T02:13:07;94568.81;;;2.41;66.66
6132;BME280;3097;42.692;23.278;2023-01-31T02:15:33;94556.72;;;2.28;65.87
6132;BME280;3097;42.692;23.278;2023-01-31T02:17:58;94564.97;;;2.30;66.74
6132;BME280;3097;42.692;23.278;2023-01-31T02:29:40;94557.69;;;2.27;67.12
6132;BME280;3097;42.692;23.278;2023-01-31T02:32:21;94559.28;;;2.28;66.88
6132;BME280;3097;42.692;23.278;2023-01-31T02:35:17;94569.91;;;2.31;66.95
6132;BME280;3097;42.692;23.278;2023-01-31T02:37:55;94574.03;;;2.32;66.79
6132;BME280;3097;42.692;23.278;2023-01-31T02:46:14;94568.03;;;2.40;66.09
6132;BME280;3097;42.692;23.278;2023-01-31T02:48:56;94571.56;;;2.39;66.80
6132;BME280;3097;42.692;23.278;2023-01-31T02:51:28;94564.03;;;2.31;67.09
6132;BME280;3097;42.692;23.278;2023-01-31T02:54:12;94594.34;;;2.47;66.81
6132;BME280;3097;42.692;23.278;2023-01-31T02:56:41;94602.16;;;2.46;67.14
6132;BME280;3097;42.692;23.278;2023-01-31T03:01:40;94611.78;;;2.50;67.21
6132;BME280;3097;42.692;23.278;2023-01-31T03:04:10;94610.88;;;2.58;66.62
6132;BME280;3097;42.692;23.278;2023-01-31T03:11:50;94631.94;;;2.52;67.55
6132;BME280;3097;42.692;23.278;2023-01-31T03:14:29;94634.41;;;2.45;68.08
6132;BME280;3097;42.692;23.278;2023-01-31T03:17:05;94629.25;;;2.39;68.67
6132;BME280;3097;42.692;23.278;2023-01-31T03:22:54;94637.16;;;2.29;68.57
6132;BME280;3097;42.692;23.278;2023-01-31T03:25:20;94629.19;;;2.17;69.36
6132;BME280;3097;42.692;23.278;2023-01-31T03:27:50;94648.66;;;2.25;69.52
6132;BME280;3097;42.692;23.278;2023-01-31T03:30:47;94629.53;;;2.14;69.30
6132;BME280;3097;42.692;23.278;2023-01-31T03:33:26;94652.56;;;2.27;69.82
6132;BME280;3097;42.692;23.278;2023-01-31T03:36:01;94653.91;;;2.23;69.91
6132;BME280;3097;42.692;23.278;2023-01-31T03:38:34;94647.16;;;2.16;70.51
6132;BME280;3097;42.692;23.278;2023-01-31T03:41:27;94665.56;;;2.18;70.81
6132;BME280;3097;42.692;23.278;2023-01-31T03:44:00;94671.25;;;2.20;71.61
6132;BME280;3097;42.692;23.278;2023-01-31T03:46:34;94680.44;;;2.21;72.07
6132;BME280;3097;42.692;23.278;2023-01-31T03:49:05;94676.06;;;2.15;72.21
6132;BME280;3097;42.692;23.278;2023-01-31T03:51:36;94676.41;;;2.12;72.97
6132;BME280;3097;42.692;23.278;2023-01-31T03:54:12;94677.66;;;2.16;73.45
6132;BME280;3097;42.692;23.278;2023-01-31T03:56:52;94673.88;;;2.12;74.00
6132;BME280;3097;42.692;23.278;2023-01-31T03:59:26;94672.47;;;2.09;74.16
6132;BME280;3097;42.692;23.278;2023-01-31T04:01:55;94677.91;;;2.21;74.16
6132;BME280;3097;42.692;23.278;2023-01-31T04:04:27;94669.75;;;2.11;74.64
6132;BME280;3097;42.692;23.278;2023-01-31T04:06:57;94667.72;;;2.06;75.00
6132;BME280;3097;42.692;23.278;2023-01-31T04:09:23;94671.31;;;2.12;75.39
6132;BME280;3097;42.692;23.278;2023-01-31T04:11:49;94662.56;;;2.00;75.80
6132;BME280;3097;42.692;23.278;2023-01-31T04:14:15;94692.25;;;1.99;76.43
6132;BME280;3097;42.692;23.278;2023-01-31T04:16:41;94681.53;;;1.89;77.23
6132;BME280;3097;42.692;23.278;2023-01-31T04:19:06;94685.50;;;1.91;77.61
6132;BME280;3097;42.692;23.278;2023-01-31T04:21:32;94690.66;;;1.83;77.84
6132;BME280;3097;42.692;23.278;2023-01-31T04:23:57;94687.84;;;1.78;78.36
6132;BME280;3097;42.692;23.278;2023-01-31T04:26:22;94677.75;;;1.70;78.87
6132;BME280;3097;42.692;23.278;2023-01-31T04:28:48;94662.00;;;1.52;79.04
6132;BME280;3097;42.692;23.278;2023-01-31T04:31:14;94674.72;;;1.52;78.98
6132;BME280;3097;42.692;23.278;2023-01-31T04:33:39;94695.75;;;1.61;79.67
6132;BME280;3097;42.692;23.278;2023-01-31T04:36:05;94691.63;;;1.60;80.20
6132;BME280;3097;42.692;23.278;2023-01-31T04:38:31;94694.34;;;1.58;80.39
6132;BME280;3097;42.692;23.278;2023-01-31T04:40:56;94694.19;;;1.60;80.53
6132;BME280;3097;42.692;23.278;2023-01-31T04:43:22;94692.53;;;1.44;80.82
6132;BME280;3097;42.692;23.278;2023-01-31T04:45:48;94703.97;;;1.48;81.48
6132;BME280;3097;42.692;23.278;2023-01-31T04:48:14;94690.91;;;1.51;81.32
6132;BME280;3097;42.692;23.278;2023-01-31T04:50:39;94690.63;;;1.46;81.48
6132;BME280;3097;42.692;23.278;2023-01-31T04:53:04;94714.66;;;1.58;81.40
6132;BME280;3097;42.692;23.278;2023-01-31T04:55:32;94721.00;;;1.62;81.29
6132;BME280;3097;42.692;23.278;2023-01-31T04:57:58;94705.91;;;1.61;81.38
6132;BME280;3097;42.692;23.278;2023-01-31T05:00:23;94664.91;;;1.49;81.08
6132;BME280;3097;42.692;23.278;2023-01-31T05:02:49;94700.00;;;1.68;81.46
6132;BME280;3097;42.692;23.278;2023-01-31T05:05:15;94706.31;;;1.72;81.30
6132;BME280;3097;42.692;23.278;2023-01-31T05:07:42;94677.53;;;1.57;81.12
6132;BME280;3097;42.692;23.278;2023-01-31T05:10:08;94704.22;;;1.76;81.48
6132;BME280;3097;42.692;23.278;2023-01-31T05:12:34;94701.78;;;1.82;80.95
6132;BME280;3097;42.692;23.278;2023-01-31T05:14:59;94704.31;;;1.82;80.73
6132;BME280;3097;42.692;23.278;2023-01-31T05:17:25;94700.88;;;1.75;80.70
6132;BME280;3097;42.692;23.278;2023-01-31T05:19:55;94700.19;;;1.81;80.21
6132;BME280;3097;42.692;23.278;2023-01-31T05:22:20;94670.19;;;1.62;80.36
6132;BME280;3097;42.692;23.278;2023-01-31T05:24:47;94715.31;;;1.98;80.31
6132;BME280;3097;42.692;23.278;2023-01-31T05:27:13;94712.88;;;2.04;80.27
6132;BME280;3097;42.692;23.278;2023-01-31T05:29:38;94716.56;;;2.02;80.12
6132;BME280;3097;42.692;23.278;2023-01-31T05:32:04;94713.41;;;2.00;80.42
6132;BME280;3097;42.692;23.278;2023-01-31T05:34:30;94725.47;;;1.98;80.39
6132;BME280;3097;42.692;23.278;2023-01-31T05:36:58;94720.38;;;1.98;80.40
6132;BME280;3097;42.692;23.278;2023-01-31T05:39:23;94718.47;;;2.00;80.02
6132;BME280;3097;42.692;23.278;2023-01-31T05:41:49;94706.53;;;1.85;80.43
6132;BME280;3097;42.692;23.278;2023-01-31T05:44:14;94683.56;;;1.79;80.53
6132;BME280;3097;42.692;23.278;2023-01-31T05:46:40;94720.50;;;2.04;80.38
6132;BME280;3097;42.692;23.278;2023-01-31T05:49:06;94708.38;;;1.91;80.37
6132;BME280;3097;42.692;23.278;2023-01-31T05:51:32;94719.66;;;1.89;80.06
6132;BME280;3097;42.692;23.278;2023-01-31T05:53:57;94736.19;;;2.08;80.10
6132;BME280;3097;42.692;23.278;2023-01-31T05:56:23;94737.84;;;2.01;80.47
6132;BME280;3097;42.692;23.278;2023-01-31T05:58:49;94716.97;;;1.90;80.18
6132;BME280;3097;42.692;23.278;2023-01-31T06:01:16;94737.00;;;2.08;80.79
6132;BME280;3097;42.692;23.278;2023-01-31T06:03:42;94750.06;;;2.20;80.29
6132;BME280;3097;42.692;23.278;2023-01-31T06:06:07;94727.97;;;2.20;80.18
6132;BME280;3097;42.692;23.278;2023-01-31T06:08:33;94708.41;;;2.06;80.12
6132;BME280;3097;42.692;23.278;2023-01-31T06:11:02;94741.16;;;2.24;80.47
6132;BME280;3097;42.692;23.278;2023-01-31T06:13:31;94748.69;;;2.32;80.37
6132;BME280;3097;42.692;23.278;2023-01-31T06:15:57;94742.72;;;2.25;80.75
6132;BME280;3097;42.692;23.278;2023-01-31T06:18:23;94722.97;;;2.12;80.90
6132;BME280;3097;42.692;23.278;2023-01-31T06:20:49;94709.75;;;2.17;81.03
6132;BME280;3097;42.692;23.278;2023-01-31T06:23:14;94738.94;;;2.21;81.10
6132;BME280;3097;42.692;23.278;2023-01-31T06:25:40;94737.72;;;2.17;82.07
6132;BME280;3097;42.692;23.278;2023-01-31T06:28:05;94748.16;;;2.22;82.34
6132;BME280;3097;42.692;23.278;2023-01-31T06:30:31;94728.84;;;2.13;82.03
6132;BME280;3097;42.692;23.278;2023-01-31T06:33:00;94744.75;;;2.29;81.31
6132;BME280;3097;42.692;23.278;2023-01-31T06:35:26;94753.22;;;2.22;81.57
6132;BME280;3097;42.692;23.278;2023-01-31T06:37:53;94718.91;;;2.03;81.77
6132;BME280;3097;42.692;23.278;2023-01-31T06:40:19;94755.59;;;2.23;81.57
6132;BME280;3097;42.692;23.278;2023-01-31T06:42:45;94714.41;;;1.90;81.99
6132;BME280;3097;42.692;23.278;2023-01-31T06:45:10;94741.91;;;2.10;81.98
6132;BME280;3097;42.692;23.278;2023-01-31T06:47:36;94742.72;;;1.87;82.72
6132;BME280;3097;42.692;23.278;2023-01-31T06:50:01;94754.13;;;1.91;83.29
6132;BME280;3097;42.692;23.278;2023-01-31T06:52:27;94747.38;;;1.99;83.50
6132;BME280;3097;42.692;23.278;2023-01-31T06:54:52;94742.84;;;1.94;83.37
6132;BME280;3097;42.692;23.278;2023-01-31T06:57:17;94751.44;;;2.08;83.48
6132;BME280;3097;42.692;23.278;2023-01-31T06:59:43;94745.94;;;2.19;82.18
6132;BME280;3097;42.692;23.278;2023-01-31T07:02:10;94743.41;;;2.19;82.47
6132;BME280;3097;42.692;23.278;2023-01-31T07:04:35;94748.88;;;2.30;81.64
6132;BME280;3097;42.692;23.278;2023-01-31T07:07:01;94760.72;;;2.38;81.57
6132;BME280;3097;42.692;23.278;2023-01-31T07:09:26;94756.25;;;2.40;81.57
6132;BME280;3097;42.692;23.278;2023-01-31T07:11:52;94762.16;;;2.55;81.01
6132;BME280;3097;42.692;23.278;2023-01-31T07:14:17;94738.44;;;2.40;80.86
6132;BME280;3097;42.692;23.278;2023-01-31T07:16:43;94739.94;;;2.49;80.56
6132;BME280;3097;42.692;23.278;2023-01-31T07:19:08;94766.06;;;2.72;80.57
6132;BME280;3097;42.692;23.278;2023-01-31T07:21:34;94756.94;;;2.63;80.16
6132;BME280;3097;42.692;23.278;2023-01-31T07:24:01;94736.41;;;2.50;79.79
6132;BME280;3097;42.692;23.278;2023-01-31T07:26:26;94766.38;;;2.78;79.88
6132;BME280;3097;42.692;23.278;2023-01-31T07:28:52;94779.25;;;2.61;80.91
6132;BME280;3097;42.692;23.278;2023-01-31T07:31:17;94772.91;;;2.57;81.17
6132;BME280;3097;42.692;23.278;2023-01-31T07:33:43;94768.97;;;2.55;81.23
6132;BME280;3097;42.692;23.278;2023-01-31T07:36:12;94774.41;;;2.52;82.38
6132;BME280;3097;42.692;23.278;2023-01-31T07:38:38;94775.75;;;2.62;81.55
6132;BME280;3097;42.692;23.278;2023-01-31T07:41:03;94775.38;;;2.65;81.66
6132;BME280;3097;42.692;23.278;2023-01-31T07:43:30;94775.75;;;2.62;82.34
6132;BME280;3097;42.692;23.278;2023-01-31T07:45:56;94788.56;;;2.69;82.55
6132;BME280;3097;42.692;23.278;2023-01-31T07:48:21;94786.91;;;2.76;82.28
6132;BME280;3097;42.692;23.278;2023-01-31T07:50:57;94785.06;;;2.85;81.92
6132;BME280;3097;42.692;23.278;2023-01-31T07:53:22;94788.38;;;3.00;81.26
6132;BME280;3097;42.692;23.278;2023-01-31T07:55:48;94778.19;;;3.00;80.30
6132;BME280;3097;42.692;23.278;2023-01-31T07:58:14;94781.09;;;2.97;81.11
6132;BME280;3097;42.692;23.278;2023-01-31T08:00:40;94784.84;;;3.01;81.17
6132;BME280;3097;42.692;23.278;2023-01-31T08:03:27;94793.13;;;2.88;81.42
6132;BME280;3097;42.692;23.278;2023-01-31T08:06:05;94776.53;;;2.78;82.09
6132;BME280;3097;42.692;23.278;2023-01-31T08:08:31;94767.66;;;2.73;82.84
6132;BME280;3097;42.692;23.278;2023-01-31T08:10:56;94776.25;;;2.87;82.98
6132;BME280;3097;42.692;23.278;2023-01-31T08:13:22;94782.22;;;3.09;82.79
6132;BME280;3097;42.692;23.278;2023-01-31T08:15:50;94783.69;;;3.33;81.68
6132;BME280;3097;42.692;23.278;2023-01-31T08:18:16;94783.91;;;3.53;80.74
6132;BME280;3097;42.692;23.278;2023-01-31T08:20:41;94785.88;;;3.93;80.19
6132;BME280;3097;42.692;23.278;2023-01-31T08:23:07;94786.81;;;4.62;77.34
6132;BME280;3097;42.692;23.278;2023-01-31T08:25:32;94777.34;;;4.91;75.30
6132;BME280;3097;42.692;23.278;2023-01-31T08:27:59;94769.91;;;5.37;73.75
6132;BME280;3097;42.692;23.278;2023-01-31T08:30:24;94762.22;;;5.91;72.31
6132;BME280;3097;42.692;23.278;2023-01-31T08:32:50;94769.72;;;6.45;71.24
6132;BME280;3097;42.692;23.278;2023-01-31T08:35:15;94770.47;;;6.66;69.65
6132;BME280;3097;42.692;23.278;2023-01-31T08:37:40;94770.28;;;6.67;69.11
6132;BME280;3097;42.692;23.278;2023-01-31T08:40:06;94747.09;;;6.16;68.74
6132;BME280;3097;42.692;23.278;2023-01-31T08:42:32;94777.56;;;6.04;70.44
6132;BME280;3097;42.692;23.278;2023-01-31T08:44:57;94773.59;;;5.89;70.66
6132;BME280;3097;42.692;23.278;2023-01-31T08:47:23;94773.63;;;6.02;72.00
6132;BME280;3097;42.692;23.278;2023-01-31T08:49:48;94761.44;;;6.24;71.03
6132;BME280;3097;42.692;23.278;2023-01-31T08:52:14;94784.88;;;6.40;70.15
6132;BME280;3097;42.692;23.278;2023-01-31T08:54:39;94781.31;;;6.54;71.16
6132;BME280;3097;42.692;23.278;2023-01-31T08:57:04;94782.69;;;6.57;68.88
6132;BME280;3097;42.692;23.278;2023-01-31T08:59:30;94780.31;;;6.62;69.80
6132;BME280;3097;42.692;23.278;2023-01-31T09:01:55;94774.75;;;6.98;70.63
6132;BME280;3097;42.692;23.278;2023-01-31T09:04:21;94783.13;;;7.31;68.82
6132;BME280;3097;42.692;23.278;2023-01-31T09:06:46;94779.78;;;7.69;67.76
6132;BME280;3097;42.692;23.278;2023-01-31T09:09:12;94751.09;;;7.85;64.54
6132;BME280;3097;42.692;23.278;2023-01-31T09:11:37;94779.25;;;7.60;64.39
6132;BME280;3097;42.692;23.278;2023-01-31T09:14:03;94783.63;;;7.53;65.90
6132;BME280;3097;42.692;23.278;2023-01-31T09:16:29;94783.97;;;7.12;65.49
6132;BME280;3097;42.692;23.278;2023-01-31T09:18:55;94776.19;;;6.74;65.46
6132;BME280;3097;42.692;23.278;2023-01-31T09:21:21;94780.34;;;6.69;67.66
6132;BME280;3097;42.692;23.278;2023-01-31T09:23:48;94779.94;;;6.65;67.82
6132;BME280;3097;42.692;23.278;2023-01-31T09:26:17;94769.09;;;6.56;67.74
6132;BME280;3097;42.692;23.278;2023-01-31T09:28:43;94773.03;;;6.39;68.24
6132;BME280;3097;42.692;23.278;2023-01-31T09:31:12;94752.78;;;6.38;67.73
6132;BME280;3097;42.692;23.278;2023-01-31T09:33:38;94767.31;;;6.57;68.46
6132;BME280;3097;42.692;23.278;2023-01-31T09:36:07;94753.97;;;6.35;67.23
6132;BME280;3097;42.692;23.278;2023-01-31T09:38:33;94757.69;;;5.93;68.59
6132;BME280;3097;42.692;23.278;2023-01-31T09:41:03;94709.69;;;5.15;69.73
6132;BME280;3097;42.692;23.278;2023-01-31T09:43:37;94762.50;;;5.55;72.35
6132;BME280;3097;42.692;23.278;2023-01-31T09:46:06;94757.72;;;5.39;71.28
6132;BME280;3097;42.692;23.278;2023-01-31T09:48:38;94754.56;;;5.30;72.38
6132;BME280;3097;42.692;23.278;2023-01-31T09:51:06;94725.03;;;5.28;71.91
6132;BME280;3097;42.692;23.278;2023-01-31T09:53:36;94705.38;;;5.15;72.20
6132;BME280;3097;42.692;23.278;2023-01-31T09:56:11;94733.34;;;5.43;73.32
6132;BME280;3097;42.692;23.278;2023-01-31T09:59:06;94733.56;;;5.48;71.86
6132;BME280;3097;42.692;23.278;2023-01-31T10:01:58;94733.34;;;5.36;73.09
6132;BME280;3097;42.692;23.278;2023-01-31T10:07:10;94736.16;;;5.00;73.45
6132;BME280;3097;42.692;23.278;2023-01-31T10:14:52;94722.63;;;5.06;75.62
6132;BME280;3097;42.692;23.278;2023-01-31T10:17:25;94725.28;;;5.33;73.18
6132;BME280;3097;42.692;23.278;2023-01-31T10:20:02;94714.03;;;5.27;72.27
6132;BME280;3097;42.692;23.278;2023-01-31T10:25:06;94696.75;;;5.23;72.71
6132;BME280;3097;42.692;23.278;2023-01-31T10:27:42;94705.81;;;5.32;73.16
6132;BME280;3097;42.692;23.278;2023-01-31T10:30:50;94716.19;;;5.24;72.88
6132;BME280;3097;42.692;23.278;2023-01-31T10:33:57;94708.25;;;4.99;73.42
6132;BME280;3097;42.692;23.278;2023-01-31T10:36:28;94710.84;;;5.12;74.54
6132;BME280;3097;42.692;23.278;2023-01-31T10:39:13;94696.72;;;5.16;73.08
6132;BME280;3097;42.692;23.278;2023-01-31T10:44:22;94706.38;;;4.73;73.75
6132;BME280;3097;42.692;23.278;2023-01-31T10:46:51;94703.44;;;4.76;74.76
6132;BME280;3097;42.692;23.278;2023-01-31T10:49:18;94695.72;;;4.63;74.66
6132;BME280;3097;42.692;23.278;2023-01-31T10:57:00;94686.69;;;4.67;74.76
6132;BME280;3097;42.692;23.278;2023-01-31T10:59:35;94677.72;;;4.78;75.76
6132;BME280;3097;42.692;23.278;2023-01-31T11:02:02;94703.63;;;4.81;74.27
6132;BME280;3097;42.692;23.278;2023-01-31T11:04:37;94708.53;;;4.76;74.68
6132;BME280;3097;42.692;23.278;2023-01-31T11:07:04;94701.69;;;4.42;73.81
6132;BME280;3097;42.692;23.278;2023-01-31T11:09:36;94725.19;;;4.38;75.52
6132;BME280;3097;42.692;23.278;2023-01-31T11:12:05;94716.72;;;4.31;76.16
6132;BME280;3097;42.692;23.278;2023-01-31T11:14:31;94705.31;;;4.26;75.95
6132;BME280;3097;42.692;23.278;2023-01-31T11:19:48;94719.84;;;3.98;76.38
6132;BME280;3097;42.692;23.278;2023-01-31T11:22:40;94720.06;;;4.03;78.21
6132;BME280;3097;42.692;23.278;2023-01-31T11:25:19;94718.03;;;3.99;77.71
6132;BME280;3097;42.692;23.278;2023-01-31T11:27:46;94723.94;;;3.99;77.75
6132;BME280;3097;42.692;23.278;2023-01-31T11:30:22;94719.31;;;4.09;77.66
6132;BME280;3097;42.692;23.278;2023-01-31T11:32:49;94700.47;;;3.82;77.44
6132;BME280;3097;42.692;23.278;2023-01-31T11:40:39;94708.44;;;3.73;78.67
6132;BME280;3097;42.692;23.278;2023-01-31T11:43:20;94733.06;;;3.87;79.28
6132;BME280;3097;42.692;23.278;2023-01-31T11:46:13;94629.16;;;3.19;79.52
6132;BME280;3097;42.692;23.278;2023-01-31T11:48:41;94730.94;;;3.91;79.64
6132;BME280;3097;42.692;23.278;2023-01-31T11:51:08;94722.59;;;3.75;79.70
6132;BME280;3097;42.692;23.278;2023-01-31T11:56:29;94635.06;;;2.83;81.13
6132;BME280;3097;42.692;23.278;2023-01-31T11:59:01;94721.13;;;3.45;81.83
6132;BME280;3097;42.692;23.278;2023-01-31T12:01:31;94724.63;;;3.44;82.09
6132;BME280;3097;42.692;23.278;2023-01-31T12:03:59;94719.34;;;3.45;81.82
6132;BME280;3097;42.692;23.278;2023-01-31T12:06:28;94721.91;;;3.45;81.88
6132;BME280;3097;42.692;23.278;2023-01-31T12:08:55;94714.84;;;3.47;82.23
6132;BME280;3097;42.692;23.278;2023-01-31T12:11:25;94723.53;;;3.53;81.81
6132;BME280;3097;42.692;23.278;2023-01-31T12:13:52;94686.88;;;3.33;81.31
6132;BME280;3097;42.692;23.278;2023-01-31T12:16:24;94712.69;;;3.44;81.28
6132;BME280;3097;42.692;23.278;2023-01-31T12:19:05;94725.22;;;3.46;81.33
6132;BME280;3097;42.692;23.278;2023-01-31T12:24:42;94726.66;;;3.34;80.63
6132;BME280;3097;42.692;23.278;2023-01-31T12:30:51;94715.56;;;3.41;81.37
6132;BME280;3097;42.692;23.278;2023-01-31T12:39:28;94721.53;;;3.48;80.36
6132;BME280;3097;42.692;23.278;2023-01-31T12:44:44;94726.50;;;3.57;79.61
6132;BME280;3097;42.692;23.278;2023-01-31T12:50:28;94708.16;;;3.46;80.57
6132;BME280;3097;42.692;23.278;2023-01-31T12:53:22;94718.50;;;3.60;79.78
6132;BME280;3097;42.692;23.278;2023-01-31T13:01:52;94720.97;;;3.32;80.05
6132;BME280;3097;42.692;23.278;2023-01-31T13:06:56;94713.63;;;3.22;81.72
6132;BME280;3097;42.692;23.278;2023-01-31T13:09:32;94715.44;;;3.28;81.85
6132;BME280;3097;42.692;23.278;2023-01-31T13:12:08;94714.72;;;3.34;81.79
6132;BME280;3097;42.692;23.278;2023-01-31T13:14:39;94714.91;;;3.33;81.20
6132;BME280;3097;42.692;23.278;2023-01-31T13:17:11;94720.13;;;3.46;80.78
6132;BME280;3097;42.692;23.278;2023-01-31T13:19:50;94724.50;;;3.52;80.83
6132;BME280;3097;42.692;23.278;2023-01-31T13:22:31;94729.41;;;3.54;79.97
6132;BME280;3097;42.692;23.278;2023-01-31T13:25:11;94733.53;;;3.55;79.80
6132;BME280;3097;42.692;23.278;2023-01-31T13:27:43;94722.03;;;3.59;79.71
6132;BME280;3097;42.692;23.278;2023-01-31T13:30:34;94726.63;;;3.70;79.54
6132;BME280;3097;42.692;23.278;2023-01-31T13:33:13;94695.44;;;3.46;79.00
6132;BME280;3097;42.692;23.278;2023-01-31T13:35:42;94729.91;;;3.64;78.94
6132;BME280;3097;42.692;23.278;2023-01-31T13:38:14;94728.25;;;3.56;78.85
6132;BME280;3097;42.692;23.278;2023-01-31T13:40:51;94732.94;;;3.53;78.41
6132;BME280;3097;42.692;23.278;2023-01-31T13:43:17;94734.03;;;3.43;79.17
6132;BME280;3097;42.692;23.278;2023-01-31T13:45:48;94692.97;;;3.17;79.74
6132;BME280;3097;42.692;23.278;2023-01-31T13:51:13;94723.19;;;3.20;79.34
6132;BME280;3097;42.692;23.278;2023-01-31T13:53:49;94732.41;;;3.21;80.02
6132;BME280;3097;42.692;23.278;2023-01-31T13:56:27;94728.63;;;3.17;80.09
6132;BME280;3097;42.692;23.278;2023-01-31T13:58:54;94687.72;;;2.83;79.52
6132;BME280;3097;42.692;23.278;2023-01-31T14:01:23;94737.97;;;3.10;80.33
6132;BME280;3097;42.692;23.278;2023-01-31T14:09:29;94736.66;;;3.14;78.56
6132;BME280;3097;42.692;23.278;2023-01-31T14:14:43;94732.63;;;3.05;79.53
6132;BME280;3097;42.692;23.278;2023-01-31T14:22:17;94743.81;;;3.25;79.47
6132;BME280;3097;42.692;23.278;2023-01-31T14:29:44;94746.34;;;3.25;79.61
6132;BME280;3097;42.692;23.278;2023-01-31T14:43:10;94763.94;;;3.20;78.74
6132;BME280;3097;42.692;23.278;2023-01-31T14:48:41;94768.69;;;2.94;79.68
6132;BME280;3097;42.692;23.278;2023-01-31T14:51:42;94778.00;;;2.87;80.18
6132;BME280;3097;42.692;23.278;2023-01-31T14:54:42;94770.84;;;2.76;81.30
6132;BME280;3097;42.692;23.278;2023-01-31T14:57:29;94741.16;;;2.53;81.13
6132;BME280;3097;42.692;23.278;2023-01-31T15:03:13;94787.16;;;2.66;82.66
6132;BME280;3097;42.692;23.278;2023-01-31T15:05:47;94797.16;;;2.68;82.28
6132;BME280;3097;42.692;23.278;2023-01-31T15:11:13;94804.59;;;2.40;83.83
6132;BME280;3097;42.692;23.278;2023-01-31T15:13:48;94803.72;;;2.48;83.82
6132;BME280;3097;42.692;23.278;2023-01-31T15:16:31;94806.69;;;2.51;83.86
6132;BME280;3097;42.692;23.278;2023-01-31T15:19:07;94802.47;;;2.44;83.54
6132;BME280;3097;42.692;23.278;2023-01-31T15:21:46;94807.63;;;2.36;84.26
6132;BME280;3097;42.692;23.278;2023-01-31T15:24:26;94779.78;;;2.19;84.37
6132;BME280;3097;42.692;23.278;2023-01-31T15:26:54;94799.03;;;2.37;83.70
6132;BME280;3097;42.692;23.278;2023-01-31T15:29:24;94820.91;;;2.46;83.98
6132;BME280;3097;42.692;23.278;2023-01-31T15:31:56;94808.97;;;2.46;83.33
6132;BME280;3097;42.692;23.278;2023-01-31T15:34:32;94810.88;;;2.44;83.34
6132;BME280;3097;42.692;23.278;2023-01-31T15:37:19;94812.75;;;2.50;83.43
6132;BME280;3097;42.692;23.278;2023-01-31T15:39:54;94839.94;;;2.64;83.38
6132;BME280;3097;42.692;23.278;2023-01-31T15:42:26;94816.34;;;2.56;82.64
6132;BME280;3097;42.692;23.278;2023-01-31T15:47:43;94829.09;;;2.70;81.62
6132;BME280;3097;42.692;23.278;2023-01-31T15:50:20;94830.13;;;2.61;81.48